createdAt,value
2022-10-14T00:01:15.215Z,12.07
2022-10-14T00:04:17.040Z,12.23
2022-10-14T00:07:19.102Z,13.38
2022-10-14T00:10:21.570Z,13.20
2022-10-14T00:13:23.420Z,14.43
2022-10-14T00:16:31.088Z,14.32
2022-10-14T00:19:32.961Z,15.05
2022-10-14T00:22:34.821Z,13.32
2022-10-14T00:25:38.544Z,16.60
2022-10-14T00:28:40.424Z,15.13
2022-10-14T00:31:42.423Z,14.00
2022-10-14T00:34:44.401Z,13.68
2022-10-14T00:37:46.301Z,14.90
2022-10-14T00:40:48.155Z,13.77
2022-10-14T00:44:13.179Z,12.90
2022-10-14T00:47:15.034Z,12.80
2022-10-14T00:50:17.343Z,11.95
2022-10-14T00:53:20.715Z,11.73
2022-10-14T00:56:26.992Z,12.13
2022-10-14T00:59:29.223Z,12.75
2022-10-14T01:02:31.161Z,13.57
2022-10-14T01:05:40.339Z,13.15
2022-10-14T01:08:49.140Z,13.40
2022-10-14T01:12:28.459Z,12.10
2022-10-14T01:16:05.019Z,11.63
2022-10-14T01:19:51.822Z,11.82
2022-10-14T01:23:13.191Z,10.98
2022-10-14T01:26:37.125Z,11.32
2022-10-14T01:30:04.754Z,12.70
2022-10-14T01:33:33.039Z,11.82
2022-10-14T01:36:42.628Z,11.65
2022-10-14T01:39:53.528Z,10.73
2022-10-14T01:42:57.408Z,11.52
2022-10-14T01:46:02.234Z,11.50
2022-10-14T01:49:15.824Z,12.15
2022-10-14T01:55:30.984Z,11.48
2022-10-14T01:58:34.966Z,11.45
2022-10-14T02:01:36.955Z,10.93
2022-10-14T02:04:38.919Z,10.38
2022-10-14T02:07:45.423Z,10.82
2022-10-14T02:10:59.550Z,12.00
2022-10-14T02:14:27.501Z,12.57
2022-10-14T02:17:50.921Z,12.68
2022-10-14T02:21:20.587Z,12.88
2022-10-14T02:24:35.825Z,13.25
2022-10-14T02:27:39.947Z,12.45
2022-10-14T02:30:49.306Z,11.57
2022-10-14T02:33:55.889Z,14.15
2022-10-14T02:36:59.097Z,14.15
2022-10-14T02:40:08.586Z,13.25
2022-10-14T02:43:12.146Z,13.93
2022-10-14T02:46:14.348Z,14.07
2022-10-14T02:49:17.693Z,12.15
2022-10-14T02:55:22.592Z,11.20
2022-10-14T02:58:24.527Z,11.88
2022-10-14T03:01:26.601Z,11.98
2022-10-14T03:04:28.538Z,13.38
2022-10-14T03:07:30.780Z,12.88
2022-10-14T03:10:32.679Z,12.02
2022-10-14T03:13:34.498Z,13.23
2022-10-14T03:16:36.361Z,13.15
2022-10-14T03:19:38.180Z,12.68
2022-10-14T03:22:40.028Z,13.02
2022-10-14T03:25:44.199Z,12.70
2022-10-14T03:28:46.171Z,15.18
2022-10-14T03:31:48.050Z,12.68
2022-10-14T03:34:49.969Z,13.52
2022-10-14T03:37:54.652Z,13.63
2022-10-14T03:40:56.524Z,15.05
2022-10-14T03:43:58.438Z,13.38
2022-10-14T03:47:00.282Z,13.85
2022-10-14T03:50:03.063Z,13.00
2022-10-14T03:53:05.137Z,13.60
2022-10-14T03:56:07.460Z,12.30
2022-10-14T03:59:09.340Z,13.25
2022-10-14T04:02:11.278Z,13.40
2022-10-14T04:05:14.958Z,14.20
2022-10-14T04:08:16.924Z,13.88
2022-10-14T04:11:18.896Z,14.20
2022-10-14T04:14:20.736Z,14.60
2022-10-14T04:17:23.255Z,14.52
2022-10-14T04:20:25.153Z,12.80
2022-10-14T04:23:27.038Z,12.75
2022-10-14T04:26:28.985Z,14.13
2022-10-14T04:29:30.904Z,13.38
2022-10-14T04:32:32.799Z,14.05
2022-10-14T04:35:34.649Z,14.88
2022-10-14T04:38:36.506Z,13.85
2022-10-14T04:41:38.432Z,14.93
2022-10-14T04:44:41.203Z,13.98
2022-10-14T04:47:48.354Z,15.68
2022-10-14T04:50:52.059Z,19.30
2022-10-14T04:56:55.866Z,20.23
2022-10-14T04:59:57.720Z,19.00
2022-10-14T05:02:59.574Z,18.92
2022-10-14T05:06:01.537Z,19.60
2022-10-14T05:09:04.780Z,20.42
2022-10-14T05:12:06.979Z,20.27
2022-10-14T05:15:09.652Z,19.27
2022-10-14T05:18:12.683Z,17.73
2022-10-14T05:21:14.934Z,16.20
2022-10-14T05:24:16.930Z,17.30
2022-10-14T05:27:18.752Z,17.75
2022-10-14T05:30:20.619Z,17.00
2022-10-14T05:33:22.488Z,16.60
2022-10-14T05:36:24.345Z,15.93
2022-10-14T05:39:26.308Z,17.77
2022-10-14T05:42:28.215Z,16.67
2022-10-14T05:45:30.045Z,17.42
2022-10-14T05:48:32.593Z,17.90
2022-10-14T05:51:34.698Z,17.80
2022-10-14T05:54:36.910Z,18.98
2022-10-14T05:57:38.777Z,22.23
2022-10-14T06:00:40.738Z,22.17
2022-10-14T06:03:42.872Z,24.13
2022-10-14T06:06:44.988Z,26.88
2022-10-14T06:09:46.836Z,26.65
2022-10-14T06:12:48.703Z,22.05
2022-10-14T06:15:50.548Z,19.10
2022-10-14T06:18:54.611Z,14.52
2022-10-14T06:21:56.610Z,10.75
2022-10-14T06:25:03.851Z,13.07
2022-10-14T06:28:06.217Z,12.60
2022-10-14T06:31:08.118Z,12.25
2022-10-14T06:34:10.040Z,13.70
2022-10-14T06:37:11.899Z,13.60
2022-10-14T06:40:13.719Z,13.27
2022-10-14T06:43:15.651Z,11.52
2022-10-14T06:46:17.466Z,12.38
2022-10-14T06:49:19.494Z,12.27
2022-10-14T06:52:21.725Z,10.70
2022-10-14T06:55:23.752Z,9.03
2022-10-14T06:58:25.628Z,8.50
2022-10-14T07:01:27.823Z,7.57
2022-10-14T07:04:29.885Z,6.68
2022-10-14T07:07:32.317Z,8.45
2022-10-14T07:10:34.375Z,6.20
2022-10-14T07:13:36.326Z,7.47
2022-10-14T07:16:38.460Z,7.38
2022-10-14T07:19:40.306Z,8.73
2022-10-14T07:22:42.264Z,8.63
2022-10-14T07:25:44.271Z,8.07
2022-10-14T07:28:46.369Z,4.60
2022-10-14T07:31:48.273Z,4.97
2022-10-14T07:34:51.426Z,4.28
2022-10-14T07:37:53.818Z,4.03
2022-10-14T07:41:04.827Z,4.90
2022-10-14T07:44:09.550Z,4.88
2022-10-14T07:47:11.594Z,4.45
2022-10-14T07:50:13.739Z,4.95
2022-10-14T07:53:15.664Z,4.90
2022-10-14T07:56:17.607Z,5.05
2022-10-14T07:59:21.384Z,4.45
2022-10-14T08:02:23.758Z,5.05
2022-10-14T08:05:37.627Z,4.30
2022-10-14T08:08:40.905Z,4.93
2022-10-14T08:11:44.138Z,4.80
2022-10-14T08:17:47.724Z,4.30
2022-10-14T08:20:49.635Z,3.72
2022-10-14T08:23:51.647Z,3.80
2022-10-14T08:26:59.102Z,3.80
2022-10-14T08:30:00.974Z,4.43
2022-10-14T08:33:02.932Z,3.55
2022-10-14T08:36:05.207Z,3.70
2022-10-14T08:39:08.043Z,3.03
2022-10-14T08:42:24.871Z,3.28
2022-10-14T08:45:38.845Z,3.20
2022-10-14T08:48:41.210Z,2.60
2022-10-14T08:51:46.815Z,3.10
2022-10-14T08:55:00.126Z,3.72
2022-10-14T08:58:11.628Z,3.55
2022-10-14T09:01:13.674Z,3.10
2022-10-14T09:04:16.786Z,2.97
2022-10-14T09:07:20.207Z,3.03
2022-10-14T09:13:39.239Z,3.30
2022-10-14T09:16:42.477Z,2.83
2022-10-14T09:23:05.962Z,2.58
2022-10-14T09:26:13.270Z,2.17
2022-10-14T09:29:44.382Z,2.83
2022-10-14T09:32:52.621Z,3.35
2022-10-14T09:35:55.102Z,2.85
2022-10-14T09:39:02.379Z,2.50
2022-10-14T09:42:18.959Z,2.35
2022-10-14T09:48:44.653Z,2.38
2022-10-14T09:51:46.710Z,2.80
2022-10-14T09:54:58.806Z,2.15
2022-10-14T09:58:15.068Z,4.25
2022-10-14T10:01:25.815Z,3.60
2022-10-14T10:04:47.814Z,3.05
2022-10-14T10:08:17.447Z,2.80
2022-10-14T10:11:40.525Z,2.55
2022-10-14T10:14:55.707Z,2.28
2022-10-14T10:17:57.608Z,2.17
2022-10-14T10:21:24.901Z,2.10
2022-10-14T10:24:30.175Z,2.20
2022-10-14T10:27:40.547Z,2.28
2022-10-14T10:31:00.370Z,2.42
2022-10-14T10:34:02.185Z,2.33
2022-10-14T10:37:30.881Z,2.05
2022-10-14T10:40:39.933Z,1.67
2022-10-14T10:43:57.435Z,1.70
2022-10-14T10:47:14.039Z,2.25
2022-10-14T10:50:26.793Z,1.73
2022-10-14T10:53:50.615Z,2.20
2022-10-14T11:00:14.576Z,1.75
2022-10-14T11:03:41.669Z,2.35
2022-10-14T11:07:07.355Z,1.83
2022-10-14T11:10:36.858Z,2.15
2022-10-14T11:14:08.902Z,2.13
2022-10-14T11:17:24.278Z,2.33
2022-10-14T11:20:50.267Z,1.60
2022-10-14T11:24:10.246Z,2.20
2022-10-14T11:27:28.287Z,1.60
2022-10-14T11:30:43.335Z,1.58
2022-10-14T11:33:45.188Z,1.80
2022-10-14T11:37:08.888Z,2.20
2022-10-14T11:40:36.926Z,2.00
2022-10-14T11:43:49.173Z,3.95
2022-10-14T11:46:56.477Z,1.60
2022-10-14T11:50:26.580Z,2.05
2022-10-14T11:53:57.756Z,2.45
2022-10-14T11:57:24.787Z,2.35
2022-10-14T12:00:49.503Z,2.97
2022-10-14T12:04:04.512Z,1.55
2022-10-14T12:07:23.722Z,2.33
2022-10-14T12:10:33.971Z,2.17
2022-10-14T12:13:43.338Z,1.70
2022-10-14T12:16:47.572Z,1.48
2022-10-14T12:19:51.336Z,2.22
2022-10-14T12:22:55.904Z,2.03
2022-10-14T12:26:11.948Z,2.10
2022-10-14T12:29:20.008Z,1.60
2022-10-14T12:32:27.368Z,2.33
2022-10-14T12:35:45.764Z,2.13
2022-10-14T12:39:27.811Z,1.52
2022-10-14T12:42:44.382Z,1.80
2022-10-14T12:45:56.795Z,1.92
2022-10-14T12:49:00.430Z,1.80
2022-10-14T12:52:05.757Z,1.90
2022-10-14T12:55:18.544Z,1.90
2022-10-14T12:58:46.489Z,2.20
2022-10-14T13:01:58.110Z,1.95
2022-10-14T13:05:05.458Z,2.10
2022-10-14T13:08:25.750Z,1.50
2022-10-14T13:11:28.374Z,1.50
2022-10-14T13:14:32.582Z,1.73
2022-10-14T13:17:44.264Z,1.70
2022-10-14T13:20:46.054Z,1.95
2022-10-14T13:23:51.189Z,1.80
2022-10-14T13:26:55.889Z,1.92
2022-10-14T13:30:12.941Z,1.90
2022-10-14T13:33:22.726Z,1.63
2022-10-14T13:36:40.672Z,2.42
2022-10-14T13:39:42.668Z,2.45
2022-10-14T13:42:56.716Z,2.50
2022-10-14T13:46:15.098Z,2.17
2022-10-14T13:49:38.313Z,2.05
2022-10-14T13:52:40.885Z,1.95
2022-10-14T13:55:47.217Z,2.00
2022-10-14T13:58:52.616Z,1.90
2022-10-14T14:01:59.026Z,1.52
2022-10-14T14:05:01.510Z,2.22
2022-10-14T14:08:34.985Z,2.10
2022-10-14T14:11:29.577Z,3.00
2022-10-14T14:14:37.599Z,3.20
2022-10-14T14:17:43.837Z,2.88
2022-10-14T14:20:58.088Z,2.85
2022-10-14T14:24:01.431Z,3.45
2022-10-14T14:30:26.336Z,3.95
2022-10-14T14:33:34.014Z,3.37
2022-10-14T14:36:50.917Z,2.95
2022-10-14T14:40:06.591Z,3.42
2022-10-14T14:43:10.141Z,2.92
2022-10-14T14:46:19.751Z,3.03
2022-10-14T14:49:30.196Z,3.00
2022-10-14T14:52:32.372Z,2.35
2022-10-14T14:55:41.963Z,5.50
2022-10-14T14:58:50.871Z,4.25
2022-10-14T15:01:54.034Z,7.97
2022-10-14T15:05:10.961Z,16.58
2022-10-14T15:08:24.517Z,8.63
2022-10-14T15:11:26.750Z,15.05
2022-10-14T15:14:33.463Z,8.95
2022-10-14T15:17:44.880Z,13.57
2022-10-14T15:20:48.205Z,8.20
2022-10-14T15:26:51.896Z,5.43
2022-10-14T15:30:27.019Z,7.40
2022-10-14T15:33:30.063Z,5.30
2022-10-14T15:36:34.412Z,3.60
2022-10-14T15:39:36.709Z,3.88
2022-10-14T15:42:38.559Z,3.80
2022-10-14T15:45:42.997Z,2.92
2022-10-14T15:48:57.338Z,3.88
2022-10-14T15:51:59.267Z,4.15
2022-10-14T15:55:01.159Z,4.35
2022-10-14T15:58:03.142Z,3.72
2022-10-14T16:13:26.712Z,5.15
2022-10-14T16:16:34.283Z,5.22
2022-10-14T16:19:36.409Z,5.57
2022-10-14T16:22:38.285Z,6.28
2022-10-14T16:25:44.900Z,6.95
2022-10-14T16:28:47.801Z,6.40
2022-10-14T16:31:50.955Z,6.68
2022-10-14T16:34:54.365Z,6.90
2022-10-14T16:37:56.431Z,6.15
2022-10-14T16:41:00.738Z,5.22
2022-10-14T16:44:03.689Z,6.20
2022-10-14T16:47:17.518Z,7.80
2022-10-14T16:50:19.495Z,9.68
2022-10-14T16:53:40.893Z,9.77
2022-10-14T16:56:56.060Z,8.77
2022-10-14T16:59:58.092Z,7.22
2022-10-14T17:03:00.340Z,8.65
2022-10-14T17:06:02.147Z,8.40
2022-10-14T17:09:04.741Z,7.25
2022-10-14T17:12:09.626Z,7.38
2022-10-14T17:15:14.942Z,7.95
2022-10-14T17:18:18.007Z,7.68
2022-10-14T17:24:22.186Z,8.27
2022-10-14T17:27:24.699Z,11.95
2022-10-14T17:30:26.551Z,10.37
2022-10-14T17:33:28.582Z,8.63
2022-10-14T17:36:30.976Z,7.72
2022-10-14T17:39:32.951Z,12.03
2022-10-14T17:42:34.793Z,10.57
2022-10-14T17:45:38.295Z,13.40
2022-10-14T17:48:42.387Z,10.52
2022-10-14T17:51:45.059Z,10.02
2022-10-14T17:54:47.017Z,16.17
2022-10-14T17:57:49.179Z,17.23
2022-10-14T18:00:50.973Z,17.65
2022-10-14T18:03:54.535Z,16.30
2022-10-14T18:06:56.440Z,13.75
2022-10-14T18:09:59.176Z,16.00
2022-10-14T18:13:01.145Z,17.50
2022-10-14T18:16:04.855Z,17.15
2022-10-14T18:19:09.205Z,15.38
2022-10-14T18:22:11.514Z,19.15
2022-10-14T18:25:15.184Z,20.00
2022-10-14T18:28:17.124Z,20.08
2022-10-14T18:31:24.157Z,22.23
2022-10-14T18:34:27.480Z,71.38
2022-10-14T18:40:31.109Z,26.00
2022-10-14T18:43:33.369Z,20.27
2022-10-14T18:46:37.315Z,19.55
2022-10-14T18:49:40.760Z,24.25
2022-10-14T18:52:43.025Z,24.65
2022-10-14T18:55:44.932Z,19.85
2022-10-14T18:58:49.806Z,23.30
2022-10-14T19:01:53.259Z,26.63
2022-10-14T19:04:56.179Z,22.60
2022-10-14T19:07:58.015Z,21.75
2022-10-14T19:11:07.172Z,18.25
2022-10-14T19:14:09.982Z,18.75
2022-10-14T19:17:11.949Z,19.70
2022-10-14T19:20:13.905Z,19.88
2022-10-14T19:23:15.801Z,26.85
2022-10-14T19:26:20.451Z,21.58
2022-10-14T19:29:22.409Z,24.95
2022-10-14T19:32:24.290Z,24.23
2022-10-14T19:35:26.200Z,22.88
2022-10-14T19:38:28.463Z,21.05
2022-10-14T19:41:33.360Z,21.17
2022-10-14T19:44:35.299Z,18.73
2022-10-14T19:47:37.280Z,20.58
2022-10-14T19:50:41.953Z,19.48
2022-10-14T19:53:45.081Z,17.55
2022-10-14T19:56:47.143Z,18.85
2022-10-14T19:59:49.526Z,16.58
2022-10-14T20:02:51.680Z,17.27
2022-10-14T20:06:00.824Z,18.25
2022-10-14T20:09:04.031Z,18.98
2022-10-14T20:12:06.886Z,21.40
2022-10-14T20:15:09.460Z,18.98
2022-10-14T20:18:11.369Z,17.73
2022-10-14T20:21:15.222Z,17.73
2022-10-14T20:24:18.522Z,17.55
2022-10-14T20:30:22.076Z,21.55
2022-10-14T20:33:24.757Z,20.10
2022-10-14T20:36:26.693Z,21.17
2022-10-14T20:39:28.986Z,23.95
2022-10-14T20:42:35.362Z,22.60
2022-10-14T20:45:37.201Z,21.83
2022-10-14T20:48:40.152Z,22.15
2022-10-14T20:54:44.624Z,19.75
2022-10-14T20:57:46.540Z,19.63
2022-10-14T21:00:48.624Z,18.17
2022-10-14T21:03:50.944Z,19.88
2022-10-14T21:06:52.812Z,24.97
2022-10-14T21:09:54.831Z,20.95
2022-10-14T21:12:56.690Z,23.42
2022-10-14T21:15:58.829Z,21.30
2022-10-14T21:19:11.462Z,23.60
2022-10-14T21:22:13.293Z,22.90
2022-10-14T21:25:15.642Z,20.33
2022-10-14T21:28:17.658Z,20.88
2022-10-14T21:31:20.560Z,19.42
2022-10-14T21:34:24.930Z,22.20
2022-10-14T21:37:26.812Z,20.92
2022-10-14T21:40:28.801Z,19.13
2022-10-14T21:43:32.732Z,20.48
2022-10-14T21:46:35.714Z,19.60
2022-10-14T21:49:37.696Z,17.75
2022-10-14T21:52:39.694Z,18.52
2022-10-14T21:55:41.580Z,15.75
2022-10-14T21:58:44.253Z,16.52
2022-10-14T22:01:46.265Z,12.55
2022-10-14T22:04:48.213Z,14.30
2022-10-14T22:07:50.278Z,15.75
2022-10-14T22:10:52.088Z,17.08
2022-10-14T22:13:55.170Z,15.98
2022-10-14T22:16:57.256Z,15.90
2022-10-14T22:19:59.148Z,16.52
2022-10-14T22:23:00.986Z,17.02
2022-10-14T22:26:04.728Z,18.90
2022-10-14T22:29:11.662Z,17.48
2022-10-14T22:32:13.836Z,19.55
2022-10-14T22:35:15.830Z,18.63
2022-10-14T22:38:17.800Z,18.73
2022-10-14T22:41:20.319Z,15.95
2022-10-14T22:44:22.245Z,18.60
2022-10-14T22:47:24.515Z,16.02
2022-10-14T22:50:26.736Z,18.95
2022-10-14T22:53:28.961Z,16.73
2022-10-14T22:56:31.851Z,16.50
2022-10-14T22:59:33.772Z,12.80
2022-10-14T23:02:35.728Z,13.30
2022-10-14T23:05:37.652Z,15.07
2022-10-14T23:08:40.372Z,14.55
2022-10-14T23:11:42.394Z,13.55
2022-10-14T23:14:44.320Z,13.00
2022-10-14T23:17:46.154Z,14.60
2022-10-14T23:20:48.029Z,14.02
2022-10-14T23:23:51.349Z,14.15
2022-10-14T23:26:53.527Z,13.27
2022-10-14T23:29:55.377Z,13.88
2022-10-14T23:32:57.241Z,12.60
2022-10-14T23:36:04.283Z,12.75
2022-10-14T23:39:06.665Z,11.55
2022-10-14T23:42:08.471Z,13.17
2022-10-14T23:45:11.071Z,11.88
2022-10-14T23:48:12.884Z,11.68
2022-10-14T23:51:14.798Z,12.70
2022-10-14T23:54:16.650Z,11.45
2022-10-14T23:57:19.065Z,13.05
